首页
METAR-TAF:

METAR-TAF

机场 :

布拉奇岛, 克罗地亚

纬度: 43-17-09N, 经度: 016-40-47E, 海拔: 541米

当前天气观测

该预报发布于21小时和3分钟前的09:00 UTC
风速7节,风向南转南东
温度 17°C
湿度 48%
气压 1022 hPa
能见度10公里或以上
1500米以下无云,无积雨云

METAR: LDSB 220900Z 16007KT CAVOK 17/06 Q1022

时间: 08:03 (06:03 UTC)

预报

该预报发布于21小时和58分钟前的08:05 UTC
预报有效从22日的 08点(UTC)到 23日的 06点(UTC)
风速10节,风向东南
能见度10公里或以上
1500米以下无云,无积雨云
短暂存在
从 22日的 22点(UTC)到 23日的 06点(UTC)
风速20节,风向东南
多云层高于1000英尺

TAF: LDSB 220805Z 2208/2306 14010KT CAVOK TX22/2212Z TN16/2305Z TEMPO 2222/2306 14020KT RA BKN010

超过4000个机场的气象观测和天气预报(METAR&TAF报告)。

可查询的气象台以黄色和红色小点在地图上表示。

将鼠标移到小点上方,可查看气象台名称。

然后点击查看天气观测和预报。

如需切换地图:点击带黑十字的绿色按钮放大地图;点击带横线的绿色按钮缩小地图;或者点击绿色箭头查看邻近地区的地图。


METAR-TAF: